createdAt,value
2018-07-26T00:00:38.047Z,23.00
2018-07-26T00:03:06.551Z,22.90
2018-07-26T00:05:35.074Z,22.90
2018-07-26T00:08:03.582Z,22.90
2018-07-26T00:10:32.126Z,22.90
2018-07-26T00:13:00.669Z,22.90
2018-07-26T00:15:29.221Z,22.80
2018-07-26T00:17:57.726Z,22.80
2018-07-26T00:22:54.424Z,22.80
2018-07-26T00:25:22.958Z,22.70
2018-07-26T00:27:51.644Z,22.70
2018-07-26T00:30:20.222Z,22.70
2018-07-26T00:32:48.765Z,22.60
2018-07-26T00:35:17.286Z,22.60
2018-07-26T00:37:46.020Z,22.60
2018-07-26T00:40:14.562Z,22.60
2018-07-26T00:42:43.069Z,22.60
2018-07-26T00:45:11.614Z,22.50
2018-07-26T00:47:40.158Z,22.50
2018-07-26T00:50:08.689Z,22.50
2018-07-26T00:52:37.746Z,22.50
2018-07-26T00:55:06.357Z,22.50
2018-07-26T00:57:34.871Z,22.50
2018-07-26T01:02:31.604Z,22.40
2018-07-26T01:05:00.123Z,22.40
2018-07-26T01:07:28.620Z,22.40
2018-07-26T01:09:57.143Z,22.30
2018-07-26T01:12:25.662Z,22.30
2018-07-26T01:17:22.397Z,22.30
2018-07-26T01:19:51.044Z,22.30
2018-07-26T01:22:19.611Z,22.20
2018-07-26T01:24:48.138Z,22.20
2018-07-26T01:27:16.647Z,22.20
2018-07-26T01:29:45.221Z,22.20
2018-07-26T01:32:13.722Z,22.20
2018-07-26T01:34:42.512Z,22.20
2018-07-26T01:39:39.278Z,22.10
2018-07-26T01:42:07.815Z,22.10
2018-07-26T01:44:36.333Z,22.10
2018-07-26T01:49:33.222Z,22.00
2018-07-26T01:52:01.731Z,22.00
2018-07-26T01:54:30.266Z,22.00
2018-07-26T01:56:58.757Z,22.00
2018-07-26T01:59:27.294Z,22.00
2018-07-26T02:01:55.827Z,22.00
2018-07-26T02:04:24.337Z,21.90
2018-07-26T02:06:52.905Z,21.90
2018-07-26T02:09:21.410Z,21.90
2018-07-26T02:11:50.000Z,21.90
2018-07-26T02:14:23.880Z,21.80
2018-07-26T02:16:52.490Z,21.90
2018-07-26T02:19:21.061Z,21.80
2018-07-26T02:21:49.641Z,21.80
2018-07-26T02:24:18.164Z,21.80
2018-07-26T02:26:46.695Z,21.70
2018-07-26T02:29:15.217Z,21.70
2018-07-26T02:31:43.753Z,21.70
2018-07-26T02:34:12.248Z,21.70
2018-07-26T02:36:40.877Z,21.70
2018-07-26T02:39:10.261Z,21.70
2018-07-26T02:41:39.070Z,21.60
2018-07-26T02:44:07.830Z,21.60
2018-07-26T02:46:36.430Z,21.60
2018-07-26T02:49:05.124Z,21.60
2018-07-26T02:51:33.656Z,21.60
2018-07-26T02:54:02.150Z,21.60
2018-07-26T02:56:30.680Z,21.50
2018-07-26T02:58:59.181Z,21.50
2018-07-26T03:03:56.529Z,21.50
2018-07-26T03:06:25.062Z,21.50
2018-07-26T03:08:53.549Z,21.40
2018-07-26T03:11:22.078Z,21.40
2018-07-26T03:13:50.717Z,21.40
2018-07-26T03:16:19.266Z,21.40
2018-07-26T03:18:47.843Z,21.40
2018-07-26T03:21:16.445Z,21.40
2018-07-26T03:26:13.178Z,21.30
2018-07-26T03:28:41.703Z,21.30
2018-07-26T03:31:10.730Z,21.30
2018-07-26T03:33:39.286Z,21.30
2018-07-26T03:36:07.858Z,21.30
2018-07-26T03:38:37.119Z,21.30
2018-07-26T03:41:05.717Z,21.30
2018-07-26T03:43:34.238Z,21.20
2018-07-26T03:46:02.930Z,21.20
2018-07-26T03:48:31.454Z,21.20
2018-07-26T03:51:00.024Z,21.20
2018-07-26T03:53:28.569Z,21.20
2018-07-26T03:55:57.122Z,21.10
2018-07-26T03:58:25.815Z,21.10
2018-07-26T04:03:22.702Z,21.10
2018-07-26T04:05:51.244Z,21.10
2018-07-26T04:08:19.834Z,21.10
2018-07-26T04:10:48.534Z,21.10
2018-07-26T04:13:17.103Z,21.00
2018-07-26T04:15:45.626Z,21.00
2018-07-26T04:18:14.168Z,21.00
2018-07-26T04:20:42.725Z,21.00
2018-07-26T04:23:11.375Z,21.00
2018-07-26T04:28:08.351Z,20.90
2018-07-26T04:30:36.885Z,21.00
2018-07-26T04:33:05.427Z,21.00
2018-07-26T04:35:33.990Z,20.90
2018-07-26T04:38:02.533Z,20.90
2018-07-26T04:40:31.097Z,20.90
2018-07-26T04:42:59.778Z,20.90
2018-07-26T04:45:28.339Z,20.90
2018-07-26T04:47:57.022Z,20.90
2018-07-26T04:50:25.550Z,20.90
2018-07-26T04:52:54.160Z,20.90
2018-07-26T04:55:22.657Z,20.80
2018-07-26T04:57:51.222Z,20.80
2018-07-26T05:00:19.967Z,20.80
2018-07-26T05:02:48.533Z,20.80
2018-07-26T05:05:17.059Z,20.80
2018-07-26T05:07:45.637Z,20.80
2018-07-26T05:10:14.176Z,20.80
2018-07-26T05:12:42.794Z,20.80
2018-07-26T05:15:11.341Z,20.80
2018-07-26T05:17:39.875Z,20.80
2018-07-26T05:20:08.791Z,20.80
2018-07-26T05:22:38.141Z,20.90
2018-07-26T05:25:07.062Z,20.90
2018-07-26T05:27:35.661Z,20.90
2018-07-26T05:30:04.842Z,20.90
2018-07-26T05:32:33.582Z,20.90
2018-07-26T05:35:02.144Z,20.90
2018-07-26T05:37:30.723Z,20.90
2018-07-26T05:39:59.293Z,20.90
2018-07-26T05:42:27.834Z,20.90
2018-07-26T05:44:56.373Z,20.90
2018-07-26T05:47:24.937Z,20.90
2018-07-26T05:49:53.593Z,20.90
2018-07-26T05:52:22.133Z,21.00
2018-07-26T05:54:50.665Z,21.00
2018-07-26T05:57:19.445Z,21.00
2018-07-26T05:59:47.957Z,21.10
2018-07-26T06:02:16.593Z,21.00
2018-07-26T06:04:45.102Z,21.10
2018-07-26T06:07:13.744Z,21.10
2018-07-26T06:09:42.304Z,21.10
2018-07-26T06:12:10.914Z,21.10
2018-07-26T06:14:39.502Z,21.20
2018-07-26T06:17:08.103Z,21.20
2018-07-26T06:19:36.667Z,21.20
2018-07-26T06:22:05.560Z,21.20
2018-07-26T06:27:02.579Z,21.30
2018-07-26T06:29:31.144Z,21.20
2018-07-26T06:31:59.706Z,21.30
2018-07-26T06:34:28.311Z,21.30
2018-07-26T06:36:56.842Z,21.40
2018-07-26T06:39:25.485Z,21.40
2018-07-26T06:41:53.981Z,21.40
2018-07-26T06:44:22.646Z,21.50
2018-07-26T06:46:51.234Z,21.50
2018-07-26T06:49:19.799Z,21.50
2018-07-26T06:51:48.378Z,21.50
2018-07-26T06:54:16.963Z,21.60
2018-07-26T06:56:45.521Z,21.60
2018-07-26T06:59:14.127Z,21.60
2018-07-26T07:01:42.689Z,21.60
2018-07-26T07:04:11.316Z,21.60
2018-07-26T07:06:39.858Z,21.60
2018-07-26T07:09:10.371Z,21.60
2018-07-26T07:11:39.322Z,21.70
2018-07-26T07:14:07.969Z,21.70
2018-07-26T07:16:36.613Z,21.70
2018-07-26T07:19:05.170Z,21.70
2018-07-26T07:21:33.697Z,21.70
2018-07-26T07:24:02.351Z,21.70
2018-07-26T07:26:30.965Z,21.70
2018-07-26T07:29:03.017Z,21.70
2018-07-26T07:31:34.295Z,21.70
2018-07-26T07:34:07.168Z,21.70
2018-07-26T07:36:39.487Z,21.80
2018-07-26T07:39:14.601Z,21.80
2018-07-26T07:41:47.663Z,21.80
2018-07-26T07:44:19.042Z,21.80
2018-07-26T07:46:50.667Z,21.80
2018-07-26T07:49:20.923Z,21.80
2018-07-26T07:51:49.626Z,21.90
2018-07-26T07:54:18.180Z,21.90
2018-07-26T07:56:46.682Z,21.90
2018-07-26T07:59:15.247Z,21.90
2018-07-26T08:01:43.767Z,22.00
2018-07-26T08:04:12.578Z,22.00
2018-07-26T08:06:41.163Z,22.00
2018-07-26T08:09:11.542Z,22.00
2018-07-26T08:11:40.361Z,22.00
2018-07-26T08:14:09.727Z,22.00
2018-07-26T08:16:38.265Z,22.10
2018-07-26T08:19:07.006Z,22.10
2018-07-26T08:21:35.834Z,22.10
2018-07-26T08:24:04.414Z,22.10
2018-07-26T08:26:33.201Z,22.10
2018-07-26T08:29:02.093Z,22.20
2018-07-26T08:31:30.612Z,22.20
2018-07-26T08:33:59.484Z,22.20
2018-07-26T08:36:28.144Z,22.20
2018-07-26T08:38:56.769Z,22.20
2018-07-26T08:41:25.729Z,22.20
2018-07-26T08:43:54.328Z,22.30
2018-07-26T08:46:22.870Z,22.30
2018-07-26T08:51:20.343Z,22.30
2018-07-26T08:53:49.169Z,22.30
2018-07-26T08:56:17.725Z,22.30
2018-07-26T08:58:46.238Z,22.30
2018-07-26T09:01:14.988Z,22.30
2018-07-26T09:03:43.461Z,22.40
2018-07-26T09:06:13.027Z,22.40
2018-07-26T09:08:41.648Z,22.40
2018-07-26T09:11:10.285Z,22.40
2018-07-26T09:13:39.084Z,22.50
2018-07-26T09:16:07.634Z,22.40
2018-07-26T09:18:36.154Z,22.80
2018-07-26T09:21:04.906Z,22.80
2018-07-26T09:23:33.475Z,22.70
2018-07-26T09:26:02.053Z,22.70
2018-07-26T09:28:30.550Z,22.70
2018-07-26T09:30:59.163Z,22.70
2018-07-26T09:33:27.698Z,22.70
2018-07-26T09:35:56.249Z,22.80
2018-07-26T09:38:24.911Z,22.80
2018-07-26T09:40:53.484Z,22.80
2018-07-26T09:43:22.025Z,22.90
2018-07-26T09:45:50.575Z,23.00
2018-07-26T09:48:19.255Z,23.10
2018-07-26T09:50:47.961Z,23.10
2018-07-26T09:53:16.502Z,23.20
2018-07-26T09:55:45.114Z,23.30
2018-07-26T09:58:13.718Z,23.30
2018-07-26T10:00:47.706Z,23.40
2018-07-26T10:03:16.225Z,23.40
2018-07-26T10:05:44.761Z,23.60
2018-07-26T10:08:13.289Z,23.70
2018-07-26T10:10:41.855Z,23.80
2018-07-26T10:13:10.520Z,23.90
2018-07-26T10:15:39.077Z,24.00
2018-07-26T10:18:07.597Z,24.10
2018-07-26T10:20:36.236Z,24.20
2018-07-26T10:25:33.130Z,24.40
2018-07-26T10:28:01.649Z,24.50
2018-07-26T10:30:30.251Z,24.60
2018-07-26T10:32:58.976Z,24.70
2018-07-26T10:35:27.891Z,24.80
2018-07-26T10:37:56.422Z,24.90
2018-07-26T10:40:25.030Z,25.10
2018-07-26T10:42:54.067Z,25.10
2018-07-26T10:45:22.647Z,25.20
2018-07-26T10:47:51.189Z,25.30
2018-07-26T10:50:19.714Z,25.40
2018-07-26T10:52:48.270Z,25.50
2018-07-26T10:55:16.925Z,25.50
2018-07-26T10:57:46.489Z,25.50
2018-07-26T11:00:15.095Z,25.60
2018-07-26T11:02:43.658Z,25.80
2018-07-26T11:05:12.234Z,25.90
2018-07-26T11:07:40.882Z,25.90
2018-07-26T11:10:10.813Z,26.00
2018-07-26T11:12:39.897Z,26.10
2018-07-26T11:15:23.560Z,26.10
2018-07-26T11:17:52.135Z,26.20
2018-07-26T11:20:20.679Z,26.30
2018-07-26T11:22:50.124Z,26.40
2018-07-26T11:25:18.646Z,26.50
2018-07-26T11:27:47.245Z,26.60
2018-07-26T11:30:15.854Z,26.60
2018-07-26T11:32:44.412Z,26.60
2018-07-26T11:35:13.148Z,26.70
2018-07-26T11:37:41.966Z,26.80
2018-07-26T11:40:10.498Z,26.80
2018-07-26T11:42:39.079Z,26.90
2018-07-26T11:45:08.726Z,27.00
2018-07-26T11:47:37.594Z,27.00
2018-07-26T11:50:07.070Z,27.10
2018-07-26T11:52:35.694Z,27.20
2018-07-26T11:55:04.617Z,27.10
2018-07-26T11:57:33.231Z,27.00
2018-07-26T12:00:02.198Z,27.00
2018-07-26T12:02:30.819Z,27.10
2018-07-26T12:04:59.542Z,27.20
2018-07-26T12:07:28.103Z,27.30
2018-07-26T12:09:56.722Z,27.30
2018-07-26T12:12:25.409Z,27.10
2018-07-26T12:14:54.032Z,26.70
2018-07-26T12:17:22.626Z,26.60
2018-07-26T12:19:51.175Z,26.80
2018-07-26T12:22:19.744Z,26.60
2018-07-26T12:24:48.431Z,26.30
2018-07-26T12:27:17.071Z,26.40
2018-07-26T12:32:13.898Z,27.00
2018-07-26T12:34:42.457Z,27.10
2018-07-26T12:37:11.034Z,27.30
2018-07-26T12:39:39.583Z,27.40
2018-07-26T12:42:08.293Z,27.40
2018-07-26T12:44:36.846Z,27.50
2018-07-26T12:47:08.659Z,27.60
2018-07-26T12:49:37.196Z,27.60
2018-07-26T12:52:05.941Z,27.60
2018-07-26T12:54:34.501Z,27.50
2018-07-26T12:57:03.076Z,27.50
2018-07-26T12:59:31.601Z,27.50
2018-07-26T13:02:00.165Z,27.50
2018-07-26T13:04:29.279Z,27.30
2018-07-26T13:06:57.878Z,27.20
2018-07-26T13:09:26.435Z,28.40
2018-07-26T13:11:54.951Z,30.40
2018-07-26T13:14:23.549Z,31.10
2018-07-26T13:16:52.144Z,31.60
2018-07-26T13:19:20.695Z,31.70
2018-07-26T13:21:49.242Z,31.80
2018-07-26T13:24:17.804Z,31.90
2018-07-26T13:26:46.798Z,32.10
2018-07-26T13:29:15.384Z,32.00
2018-07-26T13:31:43.908Z,32.00
2018-07-26T13:34:12.528Z,32.00
2018-07-26T13:36:41.064Z,31.80
2018-07-26T13:39:12.253Z,31.70
2018-07-26T13:41:40.826Z,31.70
2018-07-26T13:44:09.390Z,31.60
2018-07-26T13:46:38.263Z,31.60
2018-07-26T13:49:06.815Z,31.70
2018-07-26T13:51:35.364Z,31.70
2018-07-26T13:54:03.953Z,31.70
2018-07-26T13:56:32.632Z,31.70
2018-07-26T13:59:01.214Z,31.60
2018-07-26T14:01:29.865Z,31.60
2018-07-26T14:03:58.456Z,31.60
2018-07-26T14:06:27.009Z,31.50
2018-07-26T14:08:55.573Z,31.50
2018-07-26T14:11:24.098Z,31.40
2018-07-26T14:13:52.750Z,31.50
2018-07-26T14:16:21.502Z,31.50
2018-07-26T14:18:50.086Z,31.50
2018-07-26T14:21:18.593Z,31.40
2018-07-26T14:23:51.344Z,31.40
2018-07-26T14:26:19.871Z,31.40
2018-07-26T14:31:16.661Z,31.40
2018-07-26T14:33:45.186Z,31.40
2018-07-26T14:36:13.714Z,31.40
2018-07-26T14:38:42.335Z,31.40
2018-07-26T14:41:10.870Z,31.30
2018-07-26T14:43:39.476Z,31.30
2018-07-26T14:46:08.278Z,31.30
2018-07-26T14:48:36.788Z,31.30
2018-07-26T14:51:05.289Z,31.40
2018-07-26T14:53:33.817Z,31.40
2018-07-26T14:56:02.461Z,31.40
2018-07-26T14:58:31.013Z,31.30
2018-07-26T15:00:59.579Z,31.40
2018-07-26T15:03:28.087Z,31.30
2018-07-26T15:05:56.670Z,31.30
2018-07-26T15:08:25.225Z,31.20
2018-07-26T15:10:53.930Z,31.20
2018-07-26T15:13:22.508Z,31.20
2018-07-26T15:15:51.026Z,31.20
2018-07-26T15:18:19.556Z,31.10
2018-07-26T15:20:48.126Z,31.20
2018-07-26T15:23:16.748Z,31.10
2018-07-26T15:25:45.328Z,31.00
2018-07-26T15:28:14.021Z,31.10
2018-07-26T15:30:42.579Z,31.10
2018-07-26T15:35:39.376Z,31.00
2018-07-26T15:38:07.938Z,30.90
2018-07-26T15:40:36.655Z,31.00
2018-07-26T15:43:05.735Z,30.90
2018-07-26T15:45:34.667Z,30.90
2018-07-26T15:48:03.670Z,30.80
2018-07-26T15:53:00.457Z,30.80
2018-07-26T15:55:29.082Z,30.80
2018-07-26T15:57:57.946Z,30.80
2018-07-26T16:00:27.405Z,30.80
2018-07-26T16:02:56.458Z,30.70
2018-07-26T16:05:25.351Z,30.70
2018-07-26T16:07:55.042Z,30.70
2018-07-26T16:10:24.094Z,30.60
2018-07-26T16:12:53.632Z,30.60
2018-07-26T16:15:22.598Z,30.60
2018-07-26T16:17:52.184Z,30.60
2018-07-26T16:20:20.668Z,30.50
2018-07-26T16:22:49.634Z,30.50
2018-07-26T16:25:22.498Z,30.50
2018-07-26T16:27:51.140Z,30.50
2018-07-26T16:30:19.772Z,30.50
2018-07-26T16:32:48.344Z,30.50
2018-07-26T16:35:16.977Z,30.40
2018-07-26T16:37:45.529Z,30.40
2018-07-26T16:40:14.195Z,30.40
2018-07-26T16:42:42.653Z,30.40
2018-07-26T16:45:11.301Z,30.30
2018-07-26T16:47:40.015Z,30.30
2018-07-26T16:50:09.553Z,30.30
2018-07-26T16:55:07.113Z,30.30
2018-07-26T16:57:35.841Z,30.20
2018-07-26T17:00:06.387Z,30.20
2018-07-26T17:02:35.465Z,30.20
2018-07-26T17:05:04.738Z,30.20
2018-07-26T17:07:33.952Z,30.10
2018-07-26T17:10:02.598Z,30.10
2018-07-26T17:12:31.565Z,30.00
2018-07-26T17:15:00.112Z,30.00
2018-07-26T17:17:30.284Z,30.00
2018-07-26T17:19:58.824Z,30.00
2018-07-26T17:22:27.485Z,29.90
2018-07-26T17:24:56.195Z,29.90
2018-07-26T17:27:25.034Z,29.90
2018-07-26T17:29:53.897Z,29.90
2018-07-26T17:32:23.086Z,29.90
2018-07-26T17:34:51.582Z,29.80
2018-07-26T17:37:20.173Z,29.80
2018-07-26T17:39:48.962Z,29.80
2018-07-26T17:42:17.512Z,29.70
2018-07-26T17:44:46.166Z,29.70
2018-07-26T17:47:14.825Z,29.70
2018-07-26T17:49:43.354Z,29.70
2018-07-26T17:54:40.102Z,29.60
2018-07-26T17:57:08.747Z,29.60
2018-07-26T17:59:37.274Z,29.60
2018-07-26T18:02:05.919Z,29.60
2018-07-26T18:04:35.110Z,29.50
2018-07-26T18:07:03.801Z,29.50
2018-07-26T18:09:32.330Z,29.50
2018-07-26T18:12:00.922Z,29.40
2018-07-26T18:14:29.562Z,29.40
2018-07-26T18:16:58.119Z,29.40
2018-07-26T18:19:26.650Z,29.40
2018-07-26T18:21:55.206Z,29.30
2018-07-26T18:24:23.839Z,29.30
2018-07-26T18:26:52.378Z,29.30
2018-07-26T18:29:20.919Z,29.30
2018-07-26T18:34:17.706Z,29.20
2018-07-26T18:36:46.245Z,29.20
2018-07-26T18:39:14.759Z,29.20
2018-07-26T18:41:43.273Z,29.10
2018-07-26T18:44:11.847Z,29.10
2018-07-26T18:46:40.373Z,29.10
2018-07-26T18:49:09.763Z,29.00
2018-07-26T18:51:38.306Z,29.00
2018-07-26T18:54:06.887Z,29.00
2018-07-26T18:56:35.415Z,29.00
2018-07-26T18:59:04.058Z,28.90
2018-07-26T19:01:32.582Z,28.90
2018-07-26T19:04:01.106Z,28.80
2018-07-26T19:06:29.725Z,28.80
2018-07-26T19:08:58.283Z,28.80
2018-07-26T19:11:26.990Z,28.80
2018-07-26T19:13:55.530Z,28.70
2018-07-26T19:18:52.453Z,28.70
2018-07-26T19:21:21.062Z,28.70
2018-07-26T19:23:49.671Z,28.60
2018-07-26T19:26:18.378Z,28.60
2018-07-26T19:28:46.983Z,28.60
2018-07-26T19:31:15.540Z,28.60
2018-07-26T19:33:44.344Z,28.50
2018-07-26T19:36:12.917Z,28.50
2018-07-26T19:38:41.544Z,28.40
2018-07-26T19:41:10.079Z,28.40
2018-07-26T19:43:38.707Z,28.40
2018-07-26T19:46:07.370Z,28.40
2018-07-26T19:48:36.132Z,28.30
2018-07-26T19:51:04.656Z,28.30
2018-07-26T19:53:33.213Z,28.30
2018-07-26T19:56:01.824Z,28.20
2018-07-26T19:58:30.375Z,28.20
2018-07-26T20:03:27.242Z,28.20
2018-07-26T20:05:55.796Z,28.10
2018-07-26T20:08:24.355Z,28.10
2018-07-26T20:10:52.901Z,28.00
2018-07-26T20:13:21.498Z,28.00
2018-07-26T20:15:50.037Z,28.00
2018-07-26T20:18:18.574Z,27.90
2018-07-26T20:20:47.977Z,27.90
2018-07-26T20:23:16.526Z,27.90
2018-07-26T20:28:15.792Z,27.80
2018-07-26T20:30:44.447Z,27.80
2018-07-26T20:33:13.049Z,27.80
2018-07-26T20:35:41.672Z,27.70
2018-07-26T20:38:10.216Z,27.70
2018-07-26T20:40:38.800Z,27.60
2018-07-26T20:43:07.387Z,27.60
2018-07-26T20:45:36.595Z,27.60
2018-07-26T20:48:05.433Z,27.60
2018-07-26T20:50:33.939Z,27.50
2018-07-26T20:53:02.454Z,27.50
2018-07-26T20:55:30.956Z,27.50
2018-07-26T20:57:59.583Z,27.50
2018-07-26T21:00:28.121Z,27.40
2018-07-26T21:02:56.650Z,27.40
2018-07-26T21:05:25.896Z,27.40
2018-07-26T21:07:54.511Z,27.30
2018-07-26T21:10:23.021Z,27.30
2018-07-26T21:12:51.544Z,27.30
2018-07-26T21:15:20.097Z,27.20
2018-07-26T21:17:48.665Z,27.20
2018-07-26T21:20:17.219Z,27.20
2018-07-26T21:22:45.739Z,27.10
2018-07-26T21:25:14.283Z,27.10
2018-07-26T21:27:42.814Z,27.10
2018-07-26T21:30:11.415Z,27.00
2018-07-26T21:32:39.958Z,27.00
2018-07-26T21:35:08.903Z,27.00
2018-07-26T21:37:37.432Z,26.90
2018-07-26T21:42:34.722Z,26.90
2018-07-26T21:45:03.373Z,26.90
2018-07-26T21:47:31.907Z,26.80
2018-07-26T21:50:00.458Z,26.80
2018-07-26T21:52:29.002Z,26.80
2018-07-26T21:54:57.563Z,26.70
2018-07-26T21:57:26.448Z,26.70
2018-07-26T21:59:55.026Z,26.70
2018-07-26T22:02:23.711Z,26.70
2018-07-26T22:04:52.689Z,26.60
2018-07-26T22:07:21.303Z,26.60
2018-07-26T22:09:49.854Z,26.60
2018-07-26T22:12:18.411Z,26.50
2018-07-26T22:14:46.994Z,26.50
2018-07-26T22:17:15.546Z,26.50
2018-07-26T22:19:44.121Z,26.40
2018-07-26T22:22:12.790Z,26.40
2018-07-26T22:24:41.322Z,26.40
2018-07-26T22:27:09.911Z,26.30
2018-07-26T22:29:38.454Z,26.30
2018-07-26T22:32:07.163Z,26.30
2018-07-26T22:34:35.942Z,26.30
2018-07-26T22:37:04.541Z,26.20
2018-07-26T22:39:33.112Z,26.20
2018-07-26T22:42:01.642Z,26.20
2018-07-26T22:44:30.215Z,26.20
2018-07-26T22:46:58.845Z,26.20
2018-07-26T22:49:27.419Z,26.10
2018-07-26T22:51:55.972Z,26.10
2018-07-26T22:54:24.573Z,26.10
2018-07-26T22:56:53.158Z,26.10
2018-07-26T22:59:21.715Z,26.00
2018-07-26T23:01:50.363Z,26.00
2018-07-26T23:04:18.995Z,26.00
2018-07-26T23:06:47.637Z,26.00
2018-07-26T23:09:16.195Z,25.90
2018-07-26T23:11:44.834Z,25.90
2018-07-26T23:14:13.490Z,25.90
2018-07-26T23:16:42.018Z,25.90
2018-07-26T23:19:10.574Z,25.80
2018-07-26T23:21:39.131Z,25.80
2018-07-26T23:24:07.700Z,25.80
2018-07-26T23:26:36.282Z,25.80
2018-07-26T23:29:04.887Z,25.70
2018-07-26T23:31:33.434Z,25.70
2018-07-26T23:34:01.966Z,25.70
2018-07-26T23:36:30.560Z,25.70
2018-07-26T23:38:59.229Z,25.60
2018-07-26T23:41:27.929Z,25.60
2018-07-26T23:43:56.477Z,25.50
2018-07-26T23:46:25.025Z,25.50
2018-07-26T23:48:53.555Z,25.50
2018-07-26T23:51:22.099Z,25.50
2018-07-26T23:53:50.632Z,25.40
2018-07-26T23:56:19.166Z,25.50
2018-07-26T23:58:47.721Z,25.40
